Latest Weather Observations for The Monument

IDQ60801

Issued at 2:05 pm EST Saturday 2 August 2014 (issued every 30 minutes, with the page automatically refreshed every 10 minutes)

About weather observations | Map of weather stations | Latest weather observations for QLD | Other Formats
Station Details ID: 037034 Name: THE MONUMENT AIRPORT Lat: -21.81 Lon: 139.93 Height: 288.4 m
Data from the previous 72 hours. | See also: Recent months at The Monument
Date/Time
EST
Temp
°C
App
Temp
°C
Dew
Point
Rel
Hum
%
Delta-T
°C
Wind Press
QNH
hPa
Press
MSL
hPa
Rain
since 9 am
mm
Dir
 
Spd
km/h
Gust
km/h
Spd
kts
Gust
kts
02/02:00pm 18.7 13.2 -5.4 19 9.5 ESE 15 26 8 14 1022.8 1022.2 0.0
02/01:30pm 18.3 12.1 -5.0 20 9.2 SE 19 30 10 16 1023.2 - 0.0
02/01:00pm 18.2 11.8 -4.5 21 9.1 SE 20 33 11 18 1023.5 1022.9 0.0
02/12:30pm 17.0 10.6 -4.8 22 8.6 SE 20 32 11 17 1024.5 - 0.0
02/12:00pm 17.3 10.2 -4.6 22 8.7 SE 24 33 13 18 1024.9 1024.3 0.0
02/11:30am 16.5 9.3 -5.3 22 8.5 ESE 24 35 13 19 1025.2 - 0.0
02/11:00am 15.9 7.6 -5.2 23 8.1 ESE 30 39 16 21 1025.7 1025.1 0.0
02/10:30am 15.1 7.5 -5.3 24 7.8 ESE 26 37 14 20 1025.8 - 0.0
02/10:21am 14.9 6.9 -5.5 24 7.8 ESE 28 46 15 25 1025.7 - 0.0
02/10:00am 14.0 5.3 -5.2 26 7.2 SE 32 41 17 22 1025.7 1025.1 0.0
02/09:30am 13.5 6.4 -4.2 29 6.8 SE 24 35 13 19 1025.7 - 0.0
02/09:00am 11.7 4.2 -4.8 31 6.1 SE 26 37 14 20 1025.1 1024.5 0.0
02/08:30am 10.1 4.0 -4.3 36 5.3 SSE 19 28 10 15 1025.1 - 0.0
02/08:00am 8.9 3.1 -4.3 39 4.8 SSE 17 24 9 13 1024.5 1023.8 0.0
02/07:30am 7.8 2.4 -4.3 42 4.4 SSE 15 19 8 10 1024.5 - 0.0
02/07:00am 8.0 2.3 -4.1 42 4.4 SSE 17 20 9 11 1024.2 1023.5 0.0
02/06:30am 8.2 3.2 -3.9 42 4.4 SSE 13 19 7 10 1024.0 - 0.0
02/06:00am 8.1 3.1 -4.0 42 4.4 S 13 19 7 10 1023.7 1023.1 0.0
02/05:30am 8.5 3.5 -4.0 41 4.6 SSE 13 20 7 11 1023.5 - 0.0
02/05:00am 9.1 3.4 -3.8 40 4.7 S 17 24 9 13 1023.4 1022.8 0.0
02/04:30am 9.5 3.8 -3.4 40 4.8 S 17 24 9 13 1023.5 - 0.0
02/04:00am 9.8 3.6 -3.5 39 5.0 S 20 28 11 15 1023.7 1023.1 0.0
02/03:30am 10.2 4.0 -3.5 38 5.2 S 20 28 11 15 1023.7 - 0.0
02/03:00am 10.7 4.1 -3.4 37 5.3 S 22 32 12 17 1024.0 1023.3 0.0
02/02:30am 11.1 4.5 -3.4 36 5.5 S 22 32 12 17 1024.0 - 0.0
02/02:00am 11.1 5.4 -3.4 36 5.5 S 17 22 9 12 1024.3 1023.6 0.0
02/01:30am 11.3 6.0 -3.2 36 5.5 S 15 20 8 11 1024.6 - 0.0
02/01:00am 11.8 6.6 -3.1 35 5.7 S 15 19 8 10 1024.7 1024.1 0.0
02/12:30am 12.7 7.5 -2.7 34 6.1 S 15 20 8 11 1024.8 - 0.0
02/12:00am 13.3 7.8 -2.2 34 6.2 S 17 22 9 12 1024.5 1023.8 0.0
 
Date/Time
EST
Temp
°C
App
Temp
°C
Dew
Point
Rel
Hum
%
Delta-T
°C
Wind Press
QNH
hPa
Press
MSL
hPa
Rain
since 9 am
mm
Dir
 
Spd
km/h
Gust
km/h
Spd
kts
Gust
kts
01/11:30pm 13.8 8.4 -1.0 36 6.1 S 17 22 9 12 1024.3 - 0.0
01/11:00pm 14.3 8.5 0.2 38 6.0 S 20 28 11 15 1024.0 1023.3 0.0
01/10:30pm 14.9 8.8 0.7 38 6.2 S 22 30 12 16 1023.6 - 0.0
01/10:00pm 15.5 9.1 0.9 37 6.4 S 24 30 13 16 1023.4 1022.8 0.0
01/09:30pm 16.3 9.6 1.2 36 6.7 S 26 35 14 19 1023.3 - 0.0
01/09:00pm 16.8 10.5 1.3 35 6.9 S 24 33 13 18 1022.9 1022.3 0.0
01/08:30pm 17.5 11.3 1.9 35 7.1 S 24 32 13 17 1022.5 - 0.0
01/08:00pm 18.3 12.1 2.2 34 7.4 S 24 35 13 19 1022.2 1021.6 0.0
01/07:30pm 18.9 12.7 2.3 33 7.7 S 24 32 13 17 1021.7 - 0.0
01/07:00pm 19.5 13.6 1.9 31 8.1 S 22 32 12 17 1021.2 1020.5 0.0
01/06:30pm 20.3 14.4 1.7 29 8.6 S 22 32 12 17 1020.6 - 0.0
01/06:00pm 21.4 14.7 1.6 27 9.2 S 26 37 14 20 1020.2 1019.6 0.0
01/05:30pm 22.5 16.2 1.5 25 9.9 S 24 33 13 18 1019.8 - 0.0
01/05:00pm 23.2 16.0 0.9 23 10.4 S 28 39 15 21 1019.5 1018.9 0.0
01/04:30pm 24.1 17.2 0.4 21 11.1 S 26 39 14 21 1019.2 - 0.0
01/04:00pm 24.7 18.2 0.3 20 11.4 S 24 32 13 17 1019.0 1018.4 0.0
01/03:30pm 24.9 17.6 -0.3 19 11.7 S 28 35 15 19 1018.9 - 0.0
01/03:00pm 25.6 18.9 -1.2 17 12.3 S 24 33 13 18 1019.0 1018.4 0.0
01/02:30pm 25.7 18.9 -2.0 16 12.5 S 24 37 13 20 1019.0 - 0.0
01/02:00pm 25.6 18.9 -3.8 14 12.8 S 22 33 12 18 1019.3 1018.7 0.0
01/01:30pm 25.8 18.8 -3.7 14 12.9 S 24 35 13 19 1019.5 - 0.0
01/01:00pm 26.0 19.0 -3.5 14 13.0 S 24 33 13 18 1019.8 1019.2 0.0
01/12:30pm 26.0 18.1 -4.5 13 13.2 S 28 39 15 21 1020.2 - 0.0
01/12:00pm 25.6 16.9 -4.8 13 13.0 S 32 43 17 23 1020.4 1019.7 0.0
01/11:30am 26.2 18.8 -3.4 14 13.1 S 26 41 14 22 1020.2 - 0.0
01/11:00am 25.7 20.8 -3.8 14 12.9 SSE 13 26 7 14 1020.4 1019.7 0.0
01/10:30am 25.2 20.6 -4.2 14 12.7 SE 11 15 6 8 1020.5 - 0.0
01/10:00am 23.9 18.9 -4.3 15 12.0 E 13 17 7 9 1020.7 1020.0 0.0
01/09:30am 21.9 18.0 -4.2 17 11.0 ESE 7 15 4 8 1020.7 - 0.0
01/09:00am 19.7 16.8 -3.9 20 9.7 SE 2 9 1 5 1020.1 1019.8 0.0
01/08:30am 15.3 12.7 -4.6 25 7.8 CALM 0 0 0 0 1019.9 - 0.0
01/08:00am 11.4 8.7 -6.0 29 6.3 CALM 0 0 0 0 1019.5 1019.2 0.0
01/07:30am 9.3 6.7 -5.4 35 5.2 CALM 0 0 0 0 1019.3 - 0.0
01/07:00am 8.7 6.0 -5.9 35 5.1 CALM 0 0 0 0 1019.0 1018.6 0.0
01/06:30am 8.7 4.8 -6.3 34 5.2 NNW 6 7 3 4 1018.7 - 0.0
01/06:00am 8.8 6.0 -6.6 33 5.3 CALM 0 0 0 0 1018.4 1018.0 0.0
01/05:30am 8.3 5.6 -5.5 37 4.9 CALM 0 0 0 0 1018.1 - 0.0
01/05:00am 8.6 5.9 -6.4 34 5.2 CALM 0 0 0 0 1017.9 1017.5 0.0
01/04:30am 10.0 7.3 -6.3 31 5.7 CALM 0 0 0 0 1017.8 - 0.0
01/04:00am 9.5 6.8 -5.9 33 5.4 CALM 0 0 0 0 1017.7 1017.3 0.0
01/03:30am 9.9 6.9 -5.2 34 5.5 SSW 2 6 1 3 1017.7 - 0.0
01/03:00am 9.9 7.2 -5.6 33 5.5 CALM 0 0 0 0 1017.8 1017.4 0.0
01/02:30am 10.5 6.7 -5.9 31 5.9 S 6 7 3 4 1018.0 - 0.0
01/02:00am 10.2 6.7 -6.2 31 5.8 SSE 4 9 2 5 1018.1 1017.7 0.0
01/01:30am 11.3 7.5 -5.6 30 6.2 NNE 6 7 3 4 1018.3 - 0.0
01/01:00am 12.4 8.2 -4.2 31 6.3 SSE 9 11 5 6 1018.3 1017.9 0.0
01/12:30am 12.1 7.8 -4.5 31 6.3 SSE 9 11 5 6 1018.2 - 0.0
01/12:00am 11.8 7.7 -2.8 36 5.7 SE 9 9 5 5 1018.2 1017.8 0.0
 
Date/Time
EST
Temp
°C
App
Temp
°C
Dew
Point
Rel
Hum
%
Delta-T
°C
Wind Press
QNH
hPa
Press
MSL
hPa
Rain
since 9 am
mm
Dir
 
Spd
km/h
Gust
km/h
Spd
kts
Gust
kts
31/11:30pm 13.1 9.8 -4.1 30 6.6 SSE 4 7 2 4 1018.2 - 0.0
31/11:00pm 15.1 11.4 -3.3 28 7.3 S 7 9 4 5 1018.2 1017.8 0.0
31/10:30pm 12.8 10.2 -4.8 29 6.6 CALM 0 0 0 0 1018.0 - 0.0
31/10:00pm 15.1 12.8 -2.3 30 7.1 CALM 0 0 0 0 1017.8 1017.4 0.0
31/09:30pm 15.1 12.9 -1.5 32 6.9 CALM 0 7 0 4 1017.7 - 0.0
31/09:00pm 16.1 13.9 -1.9 29 7.5 CALM 0 0 0 0 1017.4 1017.0 0.0
31/08:30pm 17.2 13.6 -1.9 27 8.0 W 7 7 4 4 1017.3 - 0.0
31/08:00pm 18.3 15.3 -2.0 25 8.6 WSW 4 7 2 4 1017.0 1016.6 0.0
31/07:30pm 21.4 18.0 -1.8 21 10.2 W 6 7 3 4 1016.6 - 0.0
31/07:00pm 21.5 19.2 -2.4 20 10.3 CALM 0 0 0 0 1016.1 1015.7 0.0
31/06:30pm 24.9 21.6 -1.0 18 11.9 W 6 7 3 4 1016.0 - 0.0
31/06:00pm 26.7 22.5 -1.2 16 12.9 WNW 11 17 6 9 1015.8 1015.4 0.0
31/05:30pm 27.6 24.1 -1.3 15 13.4 WNW 7 15 4 8 1015.7 - 0.0
31/05:00pm 27.5 23.5 0.3 17 13.0 NW 11 19 6 10 1015.7 1015.3 0.0
31/04:30pm 27.6 22.3 -0.5 16 13.3 W 17 26 9 14 1015.7 - 0.0
31/04:00pm 27.9 24.2 -0.2 16 13.3 WSW 9 19 5 10 1015.8 1015.4 0.0
31/03:30pm 27.8 23.7 -0.3 16 13.3 SW 11 22 6 12 1016.1 - 0.0
31/03:00pm 27.4 24.0 -0.6 16 13.1 SW 7 19 4 10 1016.2 1015.8 0.0
31/02:30pm 27.1 23.4 0.0 17 12.8 SSE 9 15 5 8 1016.6 - 0.0
31/02:00pm 27.1 23.8 0.0 17 12.8 SSW 7 15 4 8 1017.1 1016.7 0.0
31/01:30pm 26.9 22.8 -0.2 17 12.8 SSE 11 20 6 11 1017.6 - 0.0
31/01:00pm 26.4 22.7 0.2 18 12.4 S 9 17 5 9 1018.1 1017.7 0.0
31/12:30pm 26.1 21.0 -1.7 16 12.7 S 15 22 8 12 1018.7 - 0.0
31/12:00pm 25.3 20.0 -3.2 15 12.5 S 15 20 8 11 1019.2 1018.8 0.0
31/11:30am 25.1 19.8 -3.3 15 12.5 S 15 24 8 13 1019.6 - 0.0
31/11:00am 24.3 19.4 -3.1 16 12.0 SE 13 19 7 10 1019.9 1019.6 0.0
31/10:30am 23.1 18.1 -4.1 16 11.6 ESE 13 17 7 9 1020.2 - 0.0
31/10:00am 21.6 17.4 -3.7 18 10.7 S 9 15 5 8 1020.4 1020.0 0.0
31/09:30am 19.4 15.7 -4.1 20 9.7 SSW 6 9 3 5 1020.1 - 0.0
31/09:00am 16.7 14.1 -5.1 22 8.5 CALM 0 6 0 3 1020.1 1019.8 0.0
31/08:30am 14.7 12.1 -5.1 25 7.6 CALM 0 0 0 0 1019.8 - 0.0
31/08:00am 11.3 8.3 -4.8 32 6.0 WNW 2 7 1 4 1019.6 1019.3 0.0
31/07:30am 9.6 7.1 -4.4 37 5.1 CALM 0 2 0 1 1019.4 - 0.0
31/07:00am 8.8 5.1 -4.7 38 4.9 WSW 6 7 3 4 1019.1 1018.7 0.0
31/06:30am 9.6 7.1 -4.4 37 5.1 CALM 0 0 0 0 1018.8 - 0.0
31/06:00am 8.6 6.0 -4.9 38 4.8 CALM 0 0 0 0 1018.6 1018.2 0.0
31/05:30am 9.0 5.2 -5.2 36 5.1 WNW 6 7 3 4 1018.4 - 0.0
31/05:00am 9.4 6.8 -4.5 37 5.1 CALM 0 0 0 0 1018.3 1017.9 0.0
31/04:30am 9.7 7.1 -4.6 36 5.2 CALM 0 0 0 0 1018.3 - 0.0
31/04:00am 10.5 7.9 -5.1 33 5.7 CALM 0 0 0 0 1018.3 1017.9 0.0
31/03:30am 11.5 9.1 -3.4 35 5.7 CALM 0 0 0 0 1018.4 - 0.0
31/03:00am 10.5 7.9 -4.7 34 5.6 CALM 0 0 0 0 1018.5 1018.1 0.0
31/02:30am 12.7 10.2 -4.0 31 6.4 CALM 0 0 0 0 1018.7 - 0.0
31/02:00am 13.1 9.9 -3.6 31 6.5 S 4 6 2 3 1018.8 1018.4 0.0
31/01:30am 13.6 9.9 -4.5 28 6.9 SE 6 9 3 5 1018.8 - 0.0
31/01:00am 15.7 10.8 -3.7 26 7.7 SSE 13 15 7 8 1018.7 1018.3 0.0
31/12:30am 13.2 9.5 -4.9 28 6.8 S 6 7 3 4 1018.7 - 0.0
31/12:00am 16.0 11.8 -4.0 25 7.9 S 9 11 5 6 1018.8 1018.4 0.0
 
Date/Time
EST
Temp
°C
App
Temp
°C
Dew
Point
Rel
Hum
%
Delta-T
°C
Wind Press
QNH
hPa
Press
MSL
hPa
Rain
since 9 am
mm
Dir
 
Spd
km/h
Gust
km/h
Spd
kts
Gust
kts
30/11:30pm 16.7 12.6 -3.4 25 8.2 S 9 11 5 6 1018.9 - 0.0
30/11:00pm 17.2 13.1 -3.0 25 8.3 S 9 13 5 7 1019.1 1018.7 0.0
30/10:30pm 17.9 13.9 -2.4 25 8.5 S 9 13 5 7 1019.2 - 0.0
30/10:00pm 18.5 13.9 -1.3 26 8.5 SSE 13 15 7 8 1019.3 1019.0 0.0
30/09:30pm 17.7 13.8 -1.5 27 8.2 SSE 9 11 5 6 1019.2 - 0.0
30/09:00pm 18.9 14.7 -1.0 26 8.6 S 11 13 6 7 1019.2 1018.8 0.0
30/08:30pm 19.2 14.9 -1.3 25 8.9 SSE 11 13 6 7 1018.9 - 0.0
30/08:00pm 20.2 16.3 -1.6 23 9.5 SSE 9 11 5 6 1018.6 1018.2 0.0
30/07:30pm 22.0 17.8 -0.7 22 10.2 S 11 13 6 7 1018.4 - 0.0
30/07:00pm 22.8 18.6 -0.6 21 10.6 S 11 13 6 7 1018.0 1017.6 0.0
30/06:30pm 23.8 19.7 -0.5 20 11.1 SSE 11 13 6 7 1017.8 - 0.0
30/06:00pm 25.7 21.9 -0.4 18 12.1 SSE 9 15 5 8 1017.7 1017.3 0.0
30/05:30pm 26.9 22.8 -0.2 17 12.8 SE 11 17 6 9 1017.8 - 0.0
30/05:00pm 27.3 23.2 0.1 17 12.9 SE 11 20 6 11 1017.8 1017.4 0.0
30/04:30pm 27.5 22.7 0.3 17 13.0 SE 15 22 8 12 1017.7 - 0.0
30/04:00pm 27.5 22.5 1.1 18 12.8 SE 17 28 9 15 1017.7 1017.3 0.0
30/03:30pm 27.6 23.8 1.9 19 12.6 SE 11 17 6 9 1017.7 - 0.0
30/03:00pm 27.3 22.6 0.9 18 12.7 ESE 15 24 8 13 1017.8 1017.4 0.0
30/02:30pm 27.5 23.1 2.6 20 12.4 SE 15 22 8 12 1018.0 - 0.0

Other Formats:

Comma delimited format used in spreadsheet applications
http://www.bom.gov.au/fwo/IDQ60801/IDQ60801.94336.axf

JavaScript Object Notation format (JSON) in row-major order
http://www.bom.gov.au/fwo/IDQ60801/IDQ60801.94336.json